Lord Nelson — GHJV — position and weather

sailwx.info

Track history (hours):
 
Tides and Currents Weather Stations Pressure Air Temp Water Temp Dewpoint Dewpoint Depression Visibility Wind Speed Wind Dir Waves Ship Positions

Lord Nelson (United Kingdom)

Ship's website: http://www.jst.org.uk/

Last reported at 2014-Oct-25 15:00 UTC. Time now 2014-Oct-25 19:09 UTC.
Position N 47°54' W 006°48'.

Length 54.7 m; beam 9 m; draft 4.1 m.

Type: Sailing vessel. MMSI: 232003690.

Wind from 330 at 3 knots

Barometer 1022.0 mb
Air temperature 15.6 ° C
Visibility: greater than 10.8 NM
Dewpoint 10.3 ° C

Date/timePositionNaut miles runAvg speedWind from/ knotsBaromVisibWave heightAir tempDewpointWater temp
2014-Oct-25 15:00N 47°54' W 006°48'34 8.5 330 / 31022.010.8 15.610.3
2014-Oct-25 11:00N 48°24' W 006°24'5714.2 260 / 131022.510.8 16.0
2014-Oct-25 07:00N 48°48' W 005°06'88 4.4 260 / 111019.327.0 0.514.9 8.415.1
2014-Oct-24 11:00N 49°54' W 003°36'2 3.8 240 / 71016.610.8 0.516.214.615.5
2014-Oct-24 10:23N 49°55' W 003°33'6 6.6
2014-Oct-24 09:32N 49°58' W 003°25'6 6.1
2014-Oct-24 08:33N 50°01' W 003°17'712.8
2014-Oct-24 08:00N 50°00' W 003°06'4 8.1 220 / 101016.010.8 1.0 15.3
2014-Oct-24 07:34N 50°03' W 003°10'4 4.5
2014-Oct-24 06:33N 50°05' W 003°04'4 4.4
2014-Oct-24 05:32N 50°07' W 002°58'5 4.9
2014-Oct-24 04:33N 50°09' W 002°51'6 5.6
2014-Oct-24 03:33N 50°13' W 002°44'6 6.4
2014-Oct-24 02:33N 50°16' W 002°36'30 5.0
2014-Oct-23 20:33N 50°30' W 001°54'2 1.6
2014-Oct-23 19:33N 50°31' W 001°53'1 1.3
2014-Oct-23 18:33N 50°33' W 001°52'2 1.6
2014-Oct-23 17:33N 50°34' W 001°50'3 2.7
2014-Oct-23 16:33N 50°35' W 001°47'4 4.4
2014-Oct-23 15:33N 50°38' W 001°41'2 2.3
2014-Oct-23 14:33N 50°39' W 001°38'8 7.6
2014-Oct-23 13:30N 50°44' W 001°28'7 7.6
2014-Oct-23 12:32N 50°48' W 001°18'6 6.0
2014-Oct-23 11:33N 50°53' W 001°23'1 0.5
2014-Oct-23 10:33N 50°52' W 001°23'1 1.3
2014-Oct-23 09:30N 50°54' W 001°24'0 0.0
2014-Oct-23 07:31N 50°54' W 001°24'0 0.0
2014-Oct-22 17:13N 50°54' W 001°24'1 1.6
2014-Oct-22 16:32N 50°54' W 001°26'0 0.1
2014-Oct-22 14:20N 50°54' W 001°26'0 0.0
2014-Oct-22 13:32N 50°54' W 001°26'0 0.0
2014-Oct-22 12:29N 50°54' W 001°26'0 0.0
2014-Oct-22 11:29N 50°54' W 001°26'0 0.0
2014-Oct-22 10:04N 50°54' W 001°26'0 0.0
2014-Oct-22 09:28N 50°54' W 001°26'0 0.0
2014-Oct-22 08:28N 50°54' W 001°26'0 0.0
2014-Oct-22 07:28N 50°54' W 001°26'0 0.0
2014-Oct-22 06:28N 50°54' W 001°26'0 0.0
2014-Oct-22 05:28N 50°54' W 001°26'0 0.0
2014-Oct-22 04:22N 50°54' W 001°26'0 0.0
2014-Oct-22 03:28N 50°54' W 001°26'0 0.0
2014-Oct-22 02:28N 50°54' W 001°26'0 0.0
2014-Oct-22 01:28N 50°54' W 001°26'0 0.0
2014-Oct-22 00:28N 50°54' W 001°26'0 0.0
2014-Oct-21 23:28N 50°54' W 001°26'0 0.0
2014-Oct-21 22:28N 50°54' W 001°26'0 0.0
2014-Oct-21 21:28N 50°54' W 001°26'0 0.0
2014-Oct-21 20:28N 50°54' W 001°26'0 0.0
2014-Oct-21 19:28N 50°54' W 001°26'0 0.0
2014-Oct-21 18:25N 50°54' W 001°26'0 0.0
2014-Oct-21 17:31N 50°54' W 001°26'0 0.0
2014-Oct-21 16:31N 50°54' W 001°26'0 0.0
2014-Oct-21 15:31N 50°54' W 001°26'0 0.0
2014-Oct-21 14:31N 50°54' W 001°26'0 0.0
2014-Oct-21 13:28N 50°54' W 001°26'0 0.0
2014-Oct-21 12:31N 50°54' W 001°26'0 0.0
2014-Oct-21 11:28N 50°54' W 001°26'0 0.0
2014-Oct-21 10:28N 50°54' W 001°26'0 0.0
2014-Oct-21 09:28N 50°54' W 001°26'0 0.0
2014-Oct-21 08:22N 50°54' W 001°26'0 0.0
2014-Oct-21 07:28N 50°54' W 001°26'0 0.0
2014-Oct-21 06:22N 50°54' W 001°26'0 0.0
2014-Oct-21 05:28N 50°54' W 001°26'0 0.0
2014-Oct-21 04:34N 50°54' W 001°26'0 0.0
2014-Oct-21 03:33N 50°54' W 001°26'0 0.0
2014-Oct-21 02:18N 50°54' W 001°26'0 0.0
2014-Oct-21 01:33N 50°54' W 001°26'0 0.0
2014-Oct-21 00:33N 50°54' W 001°26'0 0.0
2014-Oct-20 23:33N 50°54' W 001°26'0 0.0
2014-Oct-20 22:33N 50°54' W 001°26'0 0.0
2014-Oct-20 21:33N 50°54' W 001°26'0 0.0
2014-Oct-20 20:33N 50°54' W 001°26'0 0.0
2014-Oct-20 19:33N 50°54' W 001°26'0 0.0
2014-Oct-20 18:33N 50°54' W 001°26'0 0.0
2014-Oct-20 17:33N 50°54' W 001°26'0 0.0
2014-Oct-20 16:33N 50°54' W 001°26'0 0.0
2014-Oct-20 15:33N 50°54' W 001°26'0 0.0
2014-Oct-20 14:33N 50°54' W 001°26'0 0.0
2014-Oct-20 13:27N 50°54' W 001°26'0 0.0
2014-Oct-20 12:33N 50°54' W 001°26'0 0.0
2014-Oct-20 11:33N 50°54' W 001°26'0 0.0
2014-Oct-20 10:33N 50°54' W 001°26'0 0.0
2014-Oct-20 09:33N 50°54' W 001°26'0 0.0
2014-Oct-20 08:33N 50°54' W 001°26'0 0.0
2014-Oct-20 07:33N 50°54' W 001°26'0 0.0
2014-Oct-20 06:33N 50°54' W 001°26'0 0.0
2014-Oct-20 05:33N 50°54' W 001°26'0 0.0
2014-Oct-20 04:33N 50°54' W 001°26'0 0.0
2014-Oct-20 03:33N 50°54' W 001°26'0 0.0
2014-Oct-20 02:33N 50°54' W 001°26'0 0.0
2014-Oct-20 01:33N 50°54' W 001°26'0 0.0
2014-Oct-20 00:33N 50°54' W 001°26'0 0.0
2014-Oct-19 23:33N 50°54' W 001°26'0 0.0
2014-Oct-19 22:33N 50°54' W 001°26'0 0.0
2014-Oct-19 21:33N 50°54' W 001°26'0 0.0
2014-Oct-19 20:33N 50°54' W 001°26'0 0.0
2014-Oct-19 19:33N 50°54' W 001°26'0 0.0
2014-Oct-19 18:32N 50°54' W 001°26'0 0.0
2014-Oct-19 17:32N 50°54' W 001°26'0 0.0
2014-Oct-19 16:32N 50°54' W 001°26'0 0.0
2014-Oct-19 15:34N 50°54' W 001°26'0 0.3
2014-Oct-19 14:31N 50°54' W 001°26'0 0.0
2014-Oct-19 13:31N 50°54' W 001°26'0 0.0
2014-Oct-19 12:31N 50°54' W 001°26'0 0.0
2014-Oct-19 11:34N 50°54' W 001°26'0 0.0
2014-Oct-19 10:34N 50°54' W 001°26'0 0.0
2014-Oct-19 09:33N 50°54' W 001°26'0 0.0
2014-Oct-19 08:33N 50°54' W 001°26'0 0.0
2014-Oct-19 07:33N 50°54' W 001°26'0 0.0
2014-Oct-19 06:33N 50°54' W 001°26'0 0.0
2014-Oct-19 05:33N 50°54' W 001°26'0 0.0
2014-Oct-19 04:33N 50°54' W 001°26'0 0.0
2014-Oct-19 03:33N 50°54' W 001°26'0 0.0
2014-Oct-19 02:33N 50°54' W 001°26'0 0.0
2014-Oct-19 01:33N 50°54' W 001°26'0 0.0
2014-Oct-19 00:33N 50°54' W 001°26'0 0.0
2014-Oct-18 23:33N 50°54' W 001°26'0 0.0
2014-Oct-18 22:33N 50°54' W 001°26'0 0.0
2014-Oct-18 21:33N 50°54' W 001°26'0 0.0
2014-Oct-18 20:33N 50°54' W 001°26'0 0.0
2014-Oct-18 19:33N 50°54' W 001°26'0 0.0
2014-Oct-18 18:33N 50°54' W 001°26'0 0.0
2014-Oct-18 17:33N 50°54' W 001°26'0 0.0
2014-Oct-18 16:33N 50°54' W 001°26'0 0.0
2014-Oct-18 15:33N 50°54' W 001°26'0 0.0
2014-Oct-18 14:33N 50°54' W 001°26'0 0.0
2014-Oct-18 13:33N 50°54' W 001°26'0 0.0
2014-Oct-18 12:33N 50°54' W 001°26'0 0.0
2014-Oct-18 11:33N 50°54' W 001°26'0 0.0
2014-Oct-18 10:33N 50°54' W 001°26'0 0.0
2014-Oct-18 09:33N 50°54' W 001°26'0 0.0
2014-Oct-18 08:33N 50°54' W 001°26'0 0.0
2014-Oct-18 07:33N 50°54' W 001°26'0 0.0
2014-Oct-18 06:33N 50°54' W 001°26'0 0.0
2014-Oct-18 05:33N 50°54' W 001°26'0 0.0
2014-Oct-18 04:33N 50°54' W 001°26'0 0.0
2014-Oct-18 03:33N 50°54' W 001°26'0 0.0
2014-Oct-18 02:32N 50°54' W 001°26'0 0.0
2014-Oct-18 01:29N 50°54' W 001°26'0 0.0
2014-Oct-18 00:32N 50°54' W 001°26'0 0.0
2014-Oct-17 23:32N 50°54' W 001°26'0 0.0
2014-Oct-17 22:32N 50°54' W 001°26'0 0.0
2014-Oct-17 21:32N 50°54' W 001°26'0 0.0
2014-Oct-17 20:32N 50°54' W 001°26'0 0.0
2014-Oct-17 19:32N 50°54' W 001°26'0 0.0
2014-Oct-17 18:32N 50°54' W 001°26'0 0.0
2014-Oct-17 17:32N 50°54' W 001°26'0 0.0
2014-Oct-17 16:32N 50°54' W 001°26'0 0.0
2014-Oct-17 15:32N 50°54' W 001°26'0 0.0
2014-Oct-17 14:32N 50°54' W 001°26'0 0.0
2014-Oct-17 13:32N 50°54' W 001°26'0 0.0
2014-Oct-17 12:32N 50°54' W 001°26'0 0.0
2014-Oct-17 11:32N 50°54' W 001°26'0 0.0
2014-Oct-17 10:32N 50°54' W 001°26'0 0.0
2014-Oct-17 09:32N 50°54' W 001°26'0 0.0
2014-Oct-17 08:32N 50°54' W 001°26'0 0.0
2014-Oct-17 07:32N 50°54' W 001°26'0 0.0
2014-Oct-17 06:32N 50°54' W 001°26'0 0.0
2014-Oct-17 05:32N 50°54' W 001°26'0 0.0
2014-Oct-17 04:32N 50°54' W 001°26'0 0.0
2014-Oct-17 03:32N 50°54' W 001°26'0 0.0
2014-Oct-17 02:32N 50°54' W 001°26'0 0.0
2014-Oct-17 01:32N 50°54' W 001°26'0 0.0
2014-Oct-17 00:32N 50°54' W 001°26'0 0.0
2014-Oct-16 23:32N 50°54' W 001°26'0 0.0
2014-Oct-16 22:32N 50°54' W 001°26'0 0.0
2014-Oct-16 21:32N 50°54' W 001°26'0 0.0
2014-Oct-16 20:32N 50°54' W 001°26'0 0.0
2014-Oct-16 19:32N 50°54' W 001°26'0 0.0
2014-Oct-16 18:31N 50°54' W 001°26'0 0.0
2014-Oct-16 17:31N 50°54' W 001°26'0 0.0
2014-Oct-16 16:31N 50°54' W 001°26'0 0.0
2014-Oct-16 15:31N 50°54' W 001°26'0 0.0
2014-Oct-16 14:31N 50°54' W 001°26'0 0.0
2014-Oct-16 13:31N 50°54' W 001°26'0 0.0
2014-Oct-16 12:28N 50°54' W 001°26'0 0.0
2014-Oct-16 11:31N 50°54' W 001°26'0 0.0
2014-Oct-16 10:28N 50°54' W 001°26'0 0.0
2014-Oct-16 09:07N 50°54' W 001°26'0 0.0
2014-Oct-16 08:10N 50°54' W 001°26'0 0.0
2014-Oct-16 07:31N 50°54' W 001°26'0 0.0
2014-Oct-16 06:31N 50°54' W 001°26'0 0.0
2014-Oct-16 05:25N 50°54' W 001°26'0 0.0
2014-Oct-16 04:31N 50°54' W 001°26'0 0.0
2014-Oct-16 03:30N 50°54' W 001°26'0 0.0
2014-Oct-16 02:30N 50°54' W 001°26'0 0.0
2014-Oct-16 01:33N 50°54' W 001°26'0 0.0
2014-Oct-16 00:30N 50°54' W 001°26'0 0.0
2014-Oct-15 23:33N 50°54' W 001°26'0 0.0
2014-Oct-15 21:27N 50°54' W 001°26'0 0.0
2014-Oct-15 20:33N 50°54' W 001°26'0 0.0
2014-Oct-15 19:30N 50°54' W 001°26'0 0.0
2014-Oct-15 18:33N 50°54' W 001°26'0 0.0
2014-Oct-15 17:30N 50°54' W 001°26'0 0.0
2014-Oct-15 16:33N 50°54' W 001°26'0 0.0
2014-Oct-15 15:24N 50°54' W 001°26'  
Track history (hours):
 
Tides and Currents Weather Stations Pressure Air Temp Water Temp Dewpoint Dewpoint Depression Visibility Wind Speed Wind Dir Waves Ship Positions

Lord Nelson (United Kingdom)

Ship's website: http://www.jst.org.uk/

Last reported at 2014-Oct-25 15:00 UTC. Time now 2014-Oct-25 19:09 UTC.
Position N 47°54' W 006°48'.

Length 54.7 m; beam 9 m; draft 4.1 m.

Type: Sailing vessel. MMSI: 232003690.

Wind from 330 at 3 knots

Barometer 1022.0 mb
Air temperature 15.6 ° C
Visibility: greater than 10.8 NM
Dewpoint 10.3 ° C

Date/timePositionNaut miles runAvg speedWind from/ knotsBaromVisibWave heightAir tempDewpointWater temp
2014-Oct-25 15:00N 47°54' W 006°48'34 8.5 330 / 31022.010.8 15.610.3
2014-Oct-25 11:00N 48°24' W 006°24'5714.2 260 / 131022.510.8 16.0
2014-Oct-25 07:00N 48°48' W 005°06'88 4.4 260 / 111019.327.0 0.514.9 8.415.1
2014-Oct-24 11:00N 49°54' W 003°36'2 3.8 240 / 71016.610.8 0.516.214.615.5
2014-Oct-24 10:23N 49°55' W 003°33'6 6.6
2014-Oct-24 09:32N 49°58' W 003°25'6 6.1
2014-Oct-24 08:33N 50°01' W 003°17'712.8
2014-Oct-24 08:00N 50°00' W 003°06'4 8.1 220 / 101016.010.8 1.0 15.3
2014-Oct-24 07:34N 50°03' W 003°10'4 4.5
2014-Oct-24 06:33N 50°05' W 003°04'4 4.4
2014-Oct-24 05:32N 50°07' W 002°58'5 4.9
2014-Oct-24 04:33N 50°09' W 002°51'6 5.6
2014-Oct-24 03:33N 50°13' W 002°44'6 6.4
2014-Oct-24 02:33N 50°16' W 002°36'30 5.0
2014-Oct-23 20:33N 50°30' W 001°54'2 1.6
2014-Oct-23 19:33N 50°31' W 001°53'1 1.3
2014-Oct-23 18:33N 50°33' W 001°52'2 1.6
2014-Oct-23 17:33N 50°34' W 001°50'3 2.7
2014-Oct-23 16:33N 50°35' W 001°47'4 4.4
2014-Oct-23 15:33N 50°38' W 001°41'2 2.3
2014-Oct-23 14:33N 50°39' W 001°38'8 7.6
2014-Oct-23 13:30N 50°44' W 001°28'7 7.6
2014-Oct-23 12:32N 50°48' W 001°18'6 6.0
2014-Oct-23 11:33N 50°53' W 001°23'1 0.5
2014-Oct-23 10:33N 50°52' W 001°23'1 1.3
2014-Oct-23 09:30N 50°54' W 001°24'0 0.0
2014-Oct-23 07:31N 50°54' W 001°24'0 0.0
2014-Oct-22 17:13N 50°54' W 001°24'1 1.6
2014-Oct-22 16:32N 50°54' W 001°26'0 0.1
2014-Oct-22 14:20N 50°54' W 001°26'0 0.0
2014-Oct-22 13:32N 50°54' W 001°26'0 0.0
2014-Oct-22 12:29N 50°54' W 001°26'0 0.0
2014-Oct-22 11:29N 50°54' W 001°26'0 0.0
2014-Oct-22 10:04N 50°54' W 001°26'0 0.0
2014-Oct-22 09:28N 50°54' W 001°26'0 0.0
2014-Oct-22 08:28N 50°54' W 001°26'0 0.0
2014-Oct-22 07:28N 50°54' W 001°26'0 0.0
2014-Oct-22 06:28N 50°54' W 001°26'0 0.0
2014-Oct-22 05:28N 50°54' W 001°26'0 0.0
2014-Oct-22 04:22N 50°54' W 001°26'0 0.0
2014-Oct-22 03:28N 50°54' W 001°26'0 0.0
2014-Oct-22 02:28N 50°54' W 001°26'0 0.0
2014-Oct-22 01:28N 50°54' W 001°26'0 0.0
2014-Oct-22 00:28N 50°54' W 001°26'0 0.0
2014-Oct-21 23:28N 50°54' W 001°26'0 0.0
2014-Oct-21 22:28N 50°54' W 001°26'0 0.0
2014-Oct-21 21:28N 50°54' W 001°26'0 0.0
2014-Oct-21 20:28N 50°54' W 001°26'0 0.0
2014-Oct-21 19:28N 50°54' W 001°26'0 0.0
2014-Oct-21 18:25N 50°54' W 001°26'0 0.0
2014-Oct-21 17:31N 50°54' W 001°26'0 0.0
2014-Oct-21 16:31N 50°54' W 001°26'0 0.0
2014-Oct-21 15:31N 50°54' W 001°26'0 0.0
2014-Oct-21 14:31N 50°54' W 001°26'0 0.0
2014-Oct-21 13:28N 50°54' W 001°26'0 0.0
2014-Oct-21 12:31N 50°54' W 001°26'0 0.0
2014-Oct-21 11:28N 50°54' W 001°26'0 0.0
2014-Oct-21 10:28N 50°54' W 001°26'0 0.0
2014-Oct-21 09:28N 50°54' W 001°26'0 0.0
2014-Oct-21 08:22N 50°54' W 001°26'0 0.0
2014-Oct-21 07:28N 50°54' W 001°26'0 0.0
2014-Oct-21 06:22N 50°54' W 001°26'0 0.0
2014-Oct-21 05:28N 50°54' W 001°26'0 0.0
2014-Oct-21 04:34N 50°54' W 001°26'0 0.0
2014-Oct-21 03:33N 50°54' W 001°26'0 0.0
2014-Oct-21 02:18N 50°54' W 001°26'0 0.0
2014-Oct-21 01:33N 50°54' W 001°26'0 0.0
2014-Oct-21 00:33N 50°54' W 001°26'0 0.0
2014-Oct-20 23:33N 50°54' W 001°26'0 0.0
2014-Oct-20 22:33N 50°54' W 001°26'0 0.0
2014-Oct-20 21:33N 50°54' W 001°26'0 0.0
2014-Oct-20 20:33N 50°54' W 001°26'0 0.0
2014-Oct-20 19:33N 50°54' W 001°26'0 0.0
2014-Oct-20 18:33N 50°54' W 001°26'0 0.0
2014-Oct-20 17:33N 50°54' W 001°26'0 0.0
2014-Oct-20 16:33N 50°54' W 001°26'0 0.0
2014-Oct-20 15:33N 50°54' W 001°26'0 0.0
2014-Oct-20 14:33N 50°54' W 001°26'0 0.0
2014-Oct-20 13:27N 50°54' W 001°26'0 0.0
2014-Oct-20 12:33N 50°54' W 001°26'0 0.0
2014-Oct-20 11:33N 50°54' W 001°26'0 0.0
2014-Oct-20 10:33N 50°54' W 001°26'0 0.0
2014-Oct-20 09:33N 50°54' W 001°26'0 0.0
2014-Oct-20 08:33N 50°54' W 001°26'0 0.0
2014-Oct-20 07:33N 50°54' W 001°26'0 0.0
2014-Oct-20 06:33N 50°54' W 001°26'0 0.0
2014-Oct-20 05:33N 50°54' W 001°26'0 0.0
2014-Oct-20 04:33N 50°54' W 001°26'0 0.0
2014-Oct-20 03:33N 50°54' W 001°26'0 0.0
2014-Oct-20 02:33N 50°54' W 001°26'0 0.0
2014-Oct-20 01:33N 50°54' W 001°26'0 0.0
2014-Oct-20 00:33N 50°54' W 001°26'0 0.0
2014-Oct-19 23:33N 50°54' W 001°26'0 0.0
2014-Oct-19 22:33N 50°54' W 001°26'0 0.0
2014-Oct-19 21:33N 50°54' W 001°26'0 0.0
2014-Oct-19 20:33N 50°54' W 001°26'0 0.0
2014-Oct-19 19:33N 50°54' W 001°26'0 0.0
2014-Oct-19 18:32N 50°54' W 001°26'0 0.0
2014-Oct-19 17:32N 50°54' W 001°26'0 0.0
2014-Oct-19 16:32N 50°54' W 001°26'0 0.0
2014-Oct-19 15:34N 50°54' W 001°26'0 0.3
2014-Oct-19 14:31N 50°54' W 001°26'0 0.0
2014-Oct-19 13:31N 50°54' W 001°26'0 0.0
2014-Oct-19 12:31N 50°54' W 001°26'0 0.0
2014-Oct-19 11:34N 50°54' W 001°26'0 0.0
2014-Oct-19 10:34N 50°54' W 001°26'0 0.0
2014-Oct-19 09:33N 50°54' W 001°26'0 0.0
2014-Oct-19 08:33N 50°54' W 001°26'0 0.0
2014-Oct-19 07:33N 50°54' W 001°26'0 0.0
2014-Oct-19 06:33N 50°54' W 001°26'0 0.0
2014-Oct-19 05:33N 50°54' W 001°26'0 0.0
2014-Oct-19 04:33N 50°54' W 001°26'0 0.0
2014-Oct-19 03:33N 50°54' W 001°26'0 0.0
2014-Oct-19 02:33N 50°54' W 001°26'0 0.0
2014-Oct-19 01:33N 50°54' W 001°26'0 0.0
2014-Oct-19 00:33N 50°54' W 001°26'0 0.0
2014-Oct-18 23:33N 50°54' W 001°26'0 0.0
2014-Oct-18 22:33N 50°54' W 001°26'0 0.0
2014-Oct-18 21:33N 50°54' W 001°26'0 0.0
2014-Oct-18 20:33N 50°54' W 001°26'0 0.0
2014-Oct-18 19:33N 50°54' W 001°26'0 0.0
2014-Oct-18 18:33N 50°54' W 001°26'0 0.0
2014-Oct-18 17:33N 50°54' W 001°26'0 0.0
2014-Oct-18 16:33N 50°54' W 001°26'0 0.0
2014-Oct-18 15:33N 50°54' W 001°26'0 0.0
2014-Oct-18 14:33N 50°54' W 001°26'0 0.0
2014-Oct-18 13:33N 50°54' W 001°26'0 0.0
2014-Oct-18 12:33N 50°54' W 001°26'0 0.0
2014-Oct-18 11:33N 50°54' W 001°26'0 0.0
2014-Oct-18 10:33N 50°54' W 001°26'0 0.0
2014-Oct-18 09:33N 50°54' W 001°26'0 0.0
2014-Oct-18 08:33N 50°54' W 001°26'0 0.0
2014-Oct-18 07:33N 50°54' W 001°26'0 0.0
2014-Oct-18 06:33N 50°54' W 001°26'0 0.0
2014-Oct-18 05:33N 50°54' W 001°26'0 0.0
2014-Oct-18 04:33N 50°54' W 001°26'0 0.0
2014-Oct-18 03:33N 50°54' W 001°26'0 0.0
2014-Oct-18 02:32N 50°54' W 001°26'0 0.0
2014-Oct-18 01:29N 50°54' W 001°26'0 0.0
2014-Oct-18 00:32N 50°54' W 001°26'0 0.0
2014-Oct-17 23:32N 50°54' W 001°26'0 0.0
2014-Oct-17 22:32N 50°54' W 001°26'0 0.0
2014-Oct-17 21:32N 50°54' W 001°26'0 0.0
2014-Oct-17 20:32N 50°54' W 001°26'0 0.0
2014-Oct-17 19:32N 50°54' W 001°26'0 0.0
2014-Oct-17 18:32N 50°54' W 001°26'0 0.0
2014-Oct-17 17:32N 50°54' W 001°26'0 0.0
2014-Oct-17 16:32N 50°54' W 001°26'0 0.0
2014-Oct-17 15:32N 50°54' W 001°26'0 0.0
2014-Oct-17 14:32N 50°54' W 001°26'0 0.0
2014-Oct-17 13:32N 50°54' W 001°26'0 0.0
2014-Oct-17 12:32N 50°54' W 001°26'0 0.0
2014-Oct-17 11:32N 50°54' W 001°26'0 0.0
2014-Oct-17 10:32N 50°54' W 001°26'0 0.0
2014-Oct-17 09:32N 50°54' W 001°26'0 0.0
2014-Oct-17 08:32N 50°54' W 001°26'0 0.0
2014-Oct-17 07:32N 50°54' W 001°26'0 0.0
2014-Oct-17 06:32N 50°54' W 001°26'0 0.0
2014-Oct-17 05:32N 50°54' W 001°26'0 0.0
2014-Oct-17 04:32N 50°54' W 001°26'0 0.0
2014-Oct-17 03:32N 50°54' W 001°26'0 0.0
2014-Oct-17 02:32N 50°54' W 001°26'0 0.0
2014-Oct-17 01:32N 50°54' W 001°26'0 0.0
2014-Oct-17 00:32N 50°54' W 001°26'0 0.0
2014-Oct-16 23:32N 50°54' W 001°26'0 0.0
2014-Oct-16 22:32N 50°54' W 001°26'0 0.0
2014-Oct-16 21:32N 50°54' W 001°26'0 0.0
2014-Oct-16 20:32N 50°54' W 001°26'0 0.0
2014-Oct-16 19:32N 50°54' W 001°26'0 0.0
2014-Oct-16 18:31N 50°54' W 001°26'0 0.0
2014-Oct-16 17:31N 50°54' W 001°26'0 0.0
2014-Oct-16 16:31N 50°54' W 001°26'0 0.0
2014-Oct-16 15:31N 50°54' W 001°26'0 0.0
2014-Oct-16 14:31N 50°54' W 001°26'0 0.0
2014-Oct-16 13:31N 50°54' W 001°26'0 0.0
2014-Oct-16 12:28N 50°54' W 001°26'0 0.0
2014-Oct-16 11:31N 50°54' W 001°26'0 0.0
2014-Oct-16 10:28N 50°54' W 001°26'0 0.0
2014-Oct-16 09:07N 50°54' W 001°26'0 0.0
2014-Oct-16 08:10N 50°54' W 001°26'0 0.0
2014-Oct-16 07:31N 50°54' W 001°26'0 0.0
2014-Oct-16 06:31N 50°54' W 001°26'0 0.0
2014-Oct-16 05:25N 50°54' W 001°26'0 0.0
2014-Oct-16 04:31N 50°54' W 001°26'0 0.0
2014-Oct-16 03:30N 50°54' W 001°26'0 0.0
2014-Oct-16 02:30N 50°54' W 001°26'0 0.0
2014-Oct-16 01:33N 50°54' W 001°26'0 0.0
2014-Oct-16 00:30N 50°54' W 001°26'0 0.0
2014-Oct-15 23:33N 50°54' W 001°26'0 0.0
2014-Oct-15 21:27N 50°54' W 001°26'0 0.0
2014-Oct-15 20:33N 50°54' W 001°26'0 0.0
2014-Oct-15 19:30N 50°54' W 001°26'0 0.0
2014-Oct-15 18:33N 50°54' W 001°26'0 0.0
2014-Oct-15 17:30N 50°54' W 001°26'0 0.0
2014-Oct-15 16:33N 50°54' W 001°26'0 0.0
2014-Oct-15 15:24N 50°54' W 001°26'  

Dump ship's entire track history